createdAt,value
2017-09-12T00:00:42.121Z,68.73
2017-09-12T00:03:10.879Z,68.82
2017-09-12T00:05:40.495Z,68.87
2017-09-12T00:08:10.987Z,68.27
2017-09-12T00:10:40.851Z,68.29
2017-09-12T00:13:09.719Z,68.06
2017-09-12T00:15:38.871Z,68.13
2017-09-12T00:18:08.251Z,68.00
2017-09-12T00:20:37.221Z,68.67
2017-09-12T00:23:06.654Z,69.23
2017-09-12T00:25:36.242Z,69.10
2017-09-12T00:28:04.617Z,69.16
2017-09-12T00:30:33.736Z,69.93
2017-09-12T00:33:02.348Z,69.28
2017-09-12T00:35:30.719Z,68.87
2017-09-12T00:37:59.579Z,69.62
2017-09-12T00:40:29.201Z,69.49
2017-09-12T00:42:57.551Z,69.34
2017-09-12T00:45:26.819Z,69.68
2017-09-12T00:47:56.330Z,68.93
2017-09-12T00:50:24.675Z,68.98
2017-09-12T00:52:53.644Z,68.96
2017-09-12T00:55:22.893Z,69.85
2017-09-12T00:57:51.314Z,68.86
2017-09-12T01:00:19.741Z,68.52
2017-09-12T01:02:48.620Z,68.59
2017-09-12T01:05:16.955Z,68.64
2017-09-12T01:07:46.551Z,68.87
2017-09-12T01:10:15.263Z,68.53
2017-09-12T01:12:43.616Z,68.84
2017-09-12T01:15:11.995Z,69.02
2017-09-12T01:17:41.886Z,69.38
2017-09-12T01:20:11.890Z,70.12
2017-09-12T01:22:40.233Z,69.10
2017-09-12T01:25:10.659Z,70.18
2017-09-12T01:27:39.765Z,70.27
2017-09-12T01:30:08.111Z,70.04
2017-09-12T01:32:37.528Z,69.26
2017-09-12T01:35:06.019Z,69.60
2017-09-12T01:37:36.244Z,70.31
2017-09-12T01:40:05.647Z,70.11
2017-09-12T01:42:34.063Z,69.48
2017-09-12T01:45:02.403Z,70.28
2017-09-12T01:47:32.826Z,69.59
2017-09-12T01:50:01.967Z,68.79
2017-09-12T01:52:30.298Z,68.80
2017-09-12T01:55:00.697Z,69.06
2017-09-12T01:57:29.081Z,68.82
2017-09-12T01:59:57.503Z,68.75
2017-09-12T02:02:26.939Z,68.72
2017-09-12T02:04:55.350Z,69.26
2017-09-12T02:07:23.765Z,68.84
2017-09-12T02:09:53.104Z,69.03
2017-09-12T02:12:21.457Z,68.86
2017-09-12T02:14:49.903Z,68.83
2017-09-12T02:17:20.711Z,69.06
2017-09-12T02:19:49.108Z,69.40
2017-09-12T02:22:17.490Z,69.21
2017-09-12T02:24:46.242Z,69.94
2017-09-12T02:27:14.750Z,69.82
2017-09-12T02:29:43.127Z,70.36
2017-09-12T02:32:12.199Z,69.48
2017-09-12T02:34:41.321Z,69.46
2017-09-12T02:37:09.696Z,70.64
2017-09-12T02:39:38.385Z,70.41
2017-09-12T02:42:06.829Z,70.51
2017-09-12T02:44:35.230Z,70.37
2017-09-12T02:47:04.121Z,70.40
2017-09-12T02:49:32.527Z,70.31
2017-09-12T02:52:00.956Z,70.61
2017-09-12T02:54:30.195Z,70.60
2017-09-12T02:57:00.924Z,70.81
2017-09-12T02:59:29.334Z,70.09
2017-09-12T03:01:58.219Z,70.21
2017-09-12T03:04:26.592Z,70.91
2017-09-12T03:06:55.047Z,71.12
2017-09-12T03:09:23.976Z,71.36
2017-09-12T03:11:53.173Z,70.36
2017-09-12T03:14:21.562Z,70.47
2017-09-12T03:16:51.033Z,70.31
2017-09-12T03:19:19.469Z,69.38
2017-09-12T03:21:47.912Z,70.03
2017-09-12T03:24:16.536Z,69.38
2017-09-12T03:26:45.692Z,69.25
2017-09-12T03:29:14.077Z,69.83
2017-09-12T03:31:42.745Z,69.23
2017-09-12T03:34:12.505Z,68.84
2017-09-12T03:36:40.865Z,68.67
2017-09-12T03:39:09.844Z,69.60
2017-09-12T03:41:38.257Z,68.98
2017-09-12T03:44:06.715Z,69.18
2017-09-12T03:46:35.434Z,69.46
2017-09-12T03:49:03.873Z,68.90
2017-09-12T03:51:32.279Z,69.48
2017-09-12T03:54:01.005Z,69.33
2017-09-12T03:56:29.425Z,69.76
2017-09-12T03:58:57.848Z,69.03
2017-09-12T04:01:28.231Z,69.14
2017-09-12T04:03:56.783Z,68.94
2017-09-12T04:06:25.181Z,68.68
2017-09-12T04:08:54.907Z,68.89
2017-09-12T04:11:23.264Z,68.83
2017-09-12T04:13:51.601Z,68.39
2017-09-12T04:16:20.237Z,70.06
2017-09-12T04:18:48.826Z,68.62
2017-09-12T04:21:18.503Z,68.16
2017-09-12T04:23:47.778Z,67.67
2017-09-12T04:26:16.953Z,68.05
2017-09-12T04:28:46.111Z,68.58
2017-09-12T04:31:15.533Z,68.14
2017-09-12T04:33:44.463Z,68.95
2017-09-12T04:36:13.569Z,69.58
2017-09-12T04:38:42.351Z,69.55
2017-09-12T04:41:10.764Z,69.52
2017-09-12T04:43:40.780Z,69.16
2017-09-12T04:46:10.013Z,68.72
2017-09-12T04:48:38.475Z,68.07
2017-09-12T04:51:07.561Z,68.48
2017-09-12T04:53:36.409Z,68.61
2017-09-12T04:56:06.275Z,69.10
2017-09-12T04:58:35.281Z,69.28
2017-09-12T05:01:04.045Z,68.76
2017-09-12T05:03:33.389Z,68.59
2017-09-12T05:06:03.233Z,68.36
2017-09-12T05:08:32.066Z,68.64
2017-09-12T05:11:00.405Z,68.82
2017-09-12T05:13:29.532Z,69.24
2017-09-12T05:15:58.181Z,69.15
2017-09-12T05:18:27.311Z,69.40
2017-09-12T05:20:55.695Z,69.07
2017-09-12T05:23:24.956Z,69.13
2017-09-12T05:25:53.328Z,69.66
2017-09-12T05:28:21.709Z,69.41
2017-09-12T05:30:51.528Z,69.00
2017-09-12T05:33:20.238Z,69.21
2017-09-12T05:35:48.609Z,69.04
2017-09-12T05:38:18.825Z,69.00
2017-09-12T05:40:47.194Z,69.14
2017-09-12T05:43:15.555Z,69.72
2017-09-12T05:45:44.264Z,69.41
2017-09-12T05:48:13.371Z,69.35
2017-09-12T05:50:41.724Z,69.46
2017-09-12T05:53:12.340Z,68.79
2017-09-12T05:55:40.669Z,68.59
2017-09-12T05:58:10.428Z,69.15
2017-09-12T06:00:39.284Z,69.12
2017-09-12T06:03:07.616Z,68.83
2017-09-12T06:05:37.201Z,68.12
2017-09-12T06:08:05.835Z,68.51
2017-09-12T06:10:35.094Z,68.51
2017-09-12T06:13:04.225Z,69.22
2017-09-12T06:15:33.178Z,71.43
2017-09-12T06:18:01.524Z,72.04
2017-09-12T06:20:29.875Z,73.28
2017-09-12T06:22:59.856Z,72.98
2017-09-12T06:25:28.975Z,74.08
2017-09-12T06:27:59.934Z,74.22
2017-09-12T06:30:28.608Z,74.08
2017-09-12T06:32:56.941Z,73.46
2017-09-12T06:35:27.087Z,73.95
2017-09-12T06:37:55.904Z,74.30
2017-09-12T06:40:24.262Z,74.12
2017-09-12T06:42:53.384Z,73.82
2017-09-12T06:45:22.009Z,74.65
2017-09-12T06:47:51.159Z,74.33
2017-09-12T06:50:20.288Z,73.67
2017-09-12T06:52:49.020Z,72.71
2017-09-12T06:55:17.392Z,73.63
2017-09-12T06:57:45.766Z,73.80
2017-09-12T07:00:15.575Z,72.53
2017-09-12T07:02:44.755Z,72.37
2017-09-12T07:05:13.366Z,72.18
2017-09-12T07:07:42.243Z,73.28
2017-09-12T07:10:10.696Z,73.01
2017-09-12T07:12:39.261Z,73.28
2017-09-12T07:15:07.917Z,72.87
2017-09-12T07:17:36.827Z,72.47
2017-09-12T07:20:05.994Z,71.64
2017-09-12T07:22:34.946Z,71.12
2017-09-12T07:25:03.261Z,71.29
2017-09-12T07:27:31.633Z,71.55
2017-09-12T07:30:00.285Z,72.93
2017-09-12T07:32:28.669Z,74.99
2017-09-12T07:34:56.998Z,74.92
2017-09-12T07:37:25.799Z,75.17
2017-09-12T07:39:54.185Z,74.42
2017-09-12T07:42:23.987Z,74.67
2017-09-12T07:44:54.189Z,73.55
2017-09-12T07:47:23.542Z,72.41
2017-09-12T07:49:52.429Z,71.80
2017-09-12T07:52:21.177Z,73.16
2017-09-12T07:54:49.559Z,74.01
2017-09-12T07:57:19.382Z,75.68
2017-09-12T07:59:48.789Z,75.13
2017-09-12T08:02:18.670Z,75.01
2017-09-12T08:04:47.022Z,76.67
2017-09-12T08:07:16.612Z,76.77
2017-09-12T08:09:46.017Z,78.24
2017-09-12T08:12:14.390Z,78.52
2017-09-12T08:14:43.022Z,77.57
2017-09-12T08:17:11.750Z,77.39
2017-09-12T08:19:40.119Z,78.60
2017-09-12T08:22:08.766Z,78.69
2017-09-12T08:24:37.113Z,78.70
2017-09-12T08:27:07.120Z,76.59
2017-09-12T08:29:36.828Z,77.58
2017-09-12T08:32:05.176Z,74.89
2017-09-12T08:34:33.628Z,73.42
2017-09-12T08:37:02.518Z,70.69
2017-09-12T08:39:30.888Z,70.64
2017-09-12T08:42:00.303Z,69.33
2017-09-12T08:44:29.894Z,68.72
2017-09-12T08:46:58.255Z,65.84
2017-09-12T08:49:26.605Z,66.17
2017-09-12T08:51:56.257Z,66.88
2017-09-12T08:54:24.622Z,64.54
2017-09-12T08:56:53.321Z,63.38
2017-09-12T08:59:21.966Z,63.43
2017-09-12T09:01:51.594Z,63.77
2017-09-12T09:04:20.790Z,62.43
2017-09-12T09:06:49.563Z,61.90
2017-09-12T09:09:19.888Z,62.09
2017-09-12T09:11:48.284Z,62.59
2017-09-12T09:14:17.414Z,61.12
2017-09-12T09:16:45.794Z,60.40
2017-09-12T09:19:14.205Z,59.31
2017-09-12T09:21:43.157Z,58.93
2017-09-12T09:24:11.526Z,61.35
2017-09-12T09:26:39.919Z,62.60
2017-09-12T09:29:08.829Z,63.38
2017-09-12T09:31:37.881Z,61.25
2017-09-12T09:34:06.238Z,58.11
2017-09-12T09:36:36.547Z,56.92
2017-09-12T09:39:04.924Z,58.68
2017-09-12T09:41:34.191Z,60.90
2017-09-12T09:44:03.362Z,59.33
2017-09-12T09:46:31.753Z,53.92
2017-09-12T09:49:01.917Z,43.45
2017-09-12T09:51:33.026Z,38.58
2017-09-12T09:54:01.742Z,37.83
2017-09-12T09:56:31.499Z,36.88
2017-09-12T09:59:00.618Z,36.57
2017-09-12T10:01:28.990Z,42.98
2017-09-12T10:03:57.658Z,41.70
2017-09-12T10:06:26.796Z,46.40
2017-09-12T10:08:55.167Z,48.73
2017-09-12T10:11:23.840Z,52.18
2017-09-12T10:13:52.268Z,50.47
2017-09-12T10:16:20.627Z,45.64
2017-09-12T10:18:49.484Z,44.17
2017-09-12T10:21:18.595Z,43.42
2017-09-12T10:23:47.777Z,44.37
2017-09-12T10:26:16.582Z,42.53
2017-09-12T10:28:45.014Z,46.91
2017-09-12T10:31:13.378Z,48.44
2017-09-12T10:33:42.139Z,43.92
2017-09-12T10:36:10.472Z,34.49
2017-09-12T10:38:38.833Z,34.07
2017-09-12T10:41:07.759Z,37.61
2017-09-12T10:43:36.142Z,40.21
2017-09-12T10:46:04.543Z,39.90
2017-09-12T10:48:33.603Z,42.61
2017-09-12T10:51:02.726Z,47.41
2017-09-12T10:53:31.101Z,46.96
2017-09-12T10:56:01.386Z,44.39
2017-09-12T10:58:29.834Z,42.13
2017-09-12T11:01:00.239Z,43.53
2017-09-12T11:03:28.939Z,45.47
2017-09-12T11:05:57.296Z,45.84
2017-09-12T11:08:25.654Z,41.95
2017-09-12T11:10:54.552Z,40.32
2017-09-12T11:13:23.668Z,42.76
2017-09-12T11:15:52.042Z,46.29
2017-09-12T11:18:20.711Z,49.03
2017-09-12T11:20:49.879Z,52.32
2017-09-12T11:23:19.413Z,52.66
2017-09-12T11:25:48.219Z,53.35
2017-09-12T11:28:16.596Z,53.94
2017-09-12T11:30:44.946Z,54.26
2017-09-12T11:33:14.355Z,53.81
2017-09-12T11:35:43.391Z,52.45
2017-09-12T11:38:11.768Z,51.47
2017-09-12T11:40:40.464Z,50.83
2017-09-12T11:43:08.838Z,52.22
2017-09-12T11:45:37.302Z,52.16
2017-09-12T11:48:06.313Z,51.34
2017-09-12T11:50:34.673Z,49.21
2017-09-12T11:53:03.032Z,41.54
2017-09-12T11:55:31.672Z,35.57
2017-09-12T11:58:00.855Z,34.35
2017-09-12T12:00:29.945Z,34.89
2017-09-12T12:02:58.598Z,31.66
2017-09-12T12:05:26.979Z,31.79
2017-09-12T12:07:55.353Z,34.94
2017-09-12T12:10:25.294Z,38.87
2017-09-12T12:12:53.713Z,40.68
2017-09-12T12:15:22.067Z,34.78
2017-09-12T12:17:54.033Z,35.67
2017-09-12T12:20:22.372Z,36.93
2017-09-12T12:22:51.497Z,32.48
2017-09-12T12:25:20.282Z,28.98
2017-09-12T12:27:48.670Z,30.62
2017-09-12T12:30:19.760Z,28.93
2017-09-12T12:32:49.644Z,26.78
2017-09-12T12:35:18.069Z,24.50
2017-09-12T12:37:46.546Z,24.46
2017-09-12T12:40:15.226Z,24.51
2017-09-12T12:42:43.619Z,24.36
2017-09-12T12:45:13.298Z,24.01
2017-09-12T12:47:43.161Z,28.75
2017-09-12T12:50:11.629Z,31.98
2017-09-12T12:52:40.628Z,34.18
2017-09-12T12:55:10.369Z,36.39
2017-09-12T12:57:38.726Z,36.89
2017-09-12T13:00:07.966Z,37.86
2017-09-12T13:02:37.291Z,40.23
2017-09-12T13:05:05.641Z,41.22
2017-09-12T13:07:34.293Z,42.90
2017-09-12T13:10:03.829Z,44.58
2017-09-12T13:12:32.204Z,46.34
2017-09-12T13:15:00.587Z,47.70
2017-09-12T13:17:30.054Z,48.22
2017-09-12T13:19:58.504Z,48.05
2017-09-12T13:22:27.325Z,48.43
2017-09-12T13:24:56.013Z,39.12
2017-09-12T13:27:26.062Z,36.81
2017-09-12T13:29:55.265Z,37.49
2017-09-12T13:32:24.236Z,41.61
2017-09-12T13:34:52.760Z,44.88
2017-09-12T13:37:21.721Z,47.67
2017-09-12T13:39:51.514Z,48.73
2017-09-12T13:42:19.926Z,51.52
2017-09-12T13:44:48.774Z,52.00
2017-09-12T13:47:18.718Z,52.87
2017-09-12T13:49:47.649Z,54.59
2017-09-12T13:52:16.171Z,53.72
2017-09-12T13:54:45.880Z,54.18
2017-09-12T13:57:14.219Z,54.09
2017-09-12T13:59:43.405Z,56.23
2017-09-12T14:02:12.097Z,56.15
2017-09-12T14:04:40.456Z,56.65
2017-09-12T14:07:09.560Z,57.16
2017-09-12T14:09:38.252Z,57.71
2017-09-12T14:12:07.286Z,57.98
2017-09-12T14:14:35.675Z,59.47
2017-09-12T14:17:04.352Z,61.83
2017-09-12T14:19:33.465Z,61.59
2017-09-12T14:22:01.879Z,59.40
2017-09-12T14:24:31.059Z,58.46
2017-09-12T14:26:59.465Z,61.27
2017-09-12T14:29:27.802Z,63.86
2017-09-12T14:31:57.266Z,64.85
2017-09-12T14:34:25.626Z,61.49
2017-09-12T14:36:53.986Z,61.08
2017-09-12T14:39:22.666Z,57.37
2017-09-12T14:41:52.776Z,56.84
2017-09-12T14:44:21.137Z,55.51
2017-09-12T14:46:50.716Z,51.26
2017-09-12T14:49:19.074Z,52.94
2017-09-12T14:51:47.705Z,54.89
2017-09-12T14:54:16.618Z,55.25
2017-09-12T14:56:44.974Z,55.03
2017-09-12T14:59:14.093Z,52.31
2017-09-12T15:01:42.719Z,50.58
2017-09-12T15:04:12.033Z,51.74
2017-09-12T15:06:40.362Z,52.17
2017-09-12T15:09:10.173Z,53.90
2017-09-12T15:11:38.509Z,54.74
2017-09-12T15:14:06.852Z,51.94
2017-09-12T15:16:35.478Z,52.77
2017-09-12T15:19:03.846Z,51.90
2017-09-12T15:21:32.242Z,53.24
2017-09-12T15:24:00.859Z,54.06
2017-09-12T15:26:29.271Z,53.64
2017-09-12T15:28:57.621Z,52.90
2017-09-12T15:31:26.566Z,54.51
2017-09-12T15:33:54.936Z,56.57
2017-09-12T15:36:24.227Z,58.09
2017-09-12T15:38:52.974Z,60.25
2017-09-12T15:41:21.307Z,58.96
2017-09-12T15:43:49.674Z,58.94
2017-09-12T15:46:18.448Z,60.07
2017-09-12T15:48:46.790Z,60.26
2017-09-12T15:51:15.906Z,60.76
2017-09-12T15:53:45.641Z,60.80
2017-09-12T15:56:14.549Z,60.05
2017-09-12T15:58:42.882Z,60.15
2017-09-12T16:01:12.227Z,59.99
2017-09-12T16:03:42.318Z,59.95
2017-09-12T16:06:11.671Z,61.17
2017-09-12T16:08:41.320Z,62.46
2017-09-12T16:11:09.678Z,63.39
2017-09-12T16:13:39.398Z,63.41
2017-09-12T16:16:08.185Z,63.69
2017-09-12T16:18:36.533Z,62.86
2017-09-12T16:21:05.751Z,62.04
2017-09-12T16:23:34.649Z,62.60
2017-09-12T16:26:03.075Z,63.56
2017-09-12T16:28:31.435Z,63.74
2017-09-12T16:31:00.330Z,63.17
2017-09-12T16:33:28.681Z,62.72
2017-09-12T16:35:57.041Z,63.46
2017-09-12T16:38:26.616Z,63.91
2017-09-12T16:40:54.988Z,64.18
2017-09-12T16:43:24.263Z,64.14
2017-09-12T16:45:53.507Z,64.87
2017-09-12T16:48:22.603Z,65.25
2017-09-12T16:50:51.749Z,65.92
2017-09-12T16:53:20.531Z,66.28
2017-09-12T16:55:49.460Z,66.23
2017-09-12T16:58:17.838Z,64.98
2017-09-12T17:00:47.994Z,64.29
2017-09-12T17:03:16.636Z,64.73
2017-09-12T17:05:45.001Z,65.19
2017-09-12T17:08:13.879Z,67.50
2017-09-12T17:10:42.643Z,67.18
2017-09-12T17:13:11.207Z,67.58
2017-09-12T17:15:39.759Z,68.55
2017-09-12T17:18:08.108Z,68.42
2017-09-12T17:20:36.493Z,69.42
2017-09-12T17:23:05.645Z,68.39
2017-09-12T17:25:33.999Z,68.87
2017-09-12T17:28:02.339Z,68.92
2017-09-12T17:30:31.267Z,68.10
2017-09-12T17:32:59.617Z,67.39
2017-09-12T17:35:29.478Z,68.27
2017-09-12T17:37:58.161Z,68.57
2017-09-12T17:40:26.517Z,68.47
2017-09-12T17:42:55.611Z,68.79
2017-09-12T17:45:24.503Z,69.18
2017-09-12T17:47:52.941Z,68.43
2017-09-12T17:50:21.312Z,68.57
2017-09-12T17:52:49.842Z,68.33
2017-09-12T17:55:18.211Z,68.22
2017-09-12T17:57:46.558Z,68.75
2017-09-12T18:00:16.413Z,68.43
2017-09-12T18:02:45.129Z,68.48
2017-09-12T18:05:13.505Z,68.60
2017-09-12T18:07:43.449Z,69.16
2017-09-12T18:10:11.893Z,70.02
2017-09-12T18:12:40.266Z,69.60
2017-09-12T18:15:09.057Z,70.45
2017-09-12T18:17:37.419Z,71.24
2017-09-12T18:20:05.795Z,71.40
2017-09-12T18:22:35.475Z,70.86
2017-09-12T18:25:04.672Z,71.61
2017-09-12T18:27:33.036Z,71.92
2017-09-12T18:30:02.548Z,71.43
2017-09-12T18:32:31.726Z,71.80
2017-09-12T18:35:00.103Z,71.58
2017-09-12T18:37:28.852Z,71.15
2017-09-12T18:40:00.909Z,70.92
2017-09-12T18:42:30.800Z,70.93
2017-09-12T18:44:59.167Z,70.78
2017-09-12T18:47:27.936Z,70.93
2017-09-12T18:49:56.806Z,70.71
2017-09-12T18:52:26.895Z,70.30
2017-09-12T18:54:56.129Z,71.21
2017-09-12T18:57:24.830Z,71.78
2017-09-12T18:59:53.189Z,71.59
2017-09-12T19:02:21.959Z,71.42
2017-09-12T19:04:51.839Z,70.93
2017-09-12T19:07:20.368Z,71.50
2017-09-12T19:09:49.489Z,71.33
2017-09-12T19:12:18.430Z,71.70
2017-09-12T19:14:46.900Z,71.73
2017-09-12T19:17:15.481Z,71.66
2017-09-12T19:19:44.517Z,71.38
2017-09-12T19:22:12.885Z,71.37
2017-09-12T19:24:42.051Z,72.49
2017-09-12T19:27:11.617Z,72.01
2017-09-12T19:29:42.487Z,72.55
2017-09-12T19:32:10.860Z,72.23
2017-09-12T19:34:41.669Z,72.57
2017-09-12T19:37:10.318Z,72.58
2017-09-12T19:39:39.444Z,72.98
2017-09-12T19:42:08.929Z,73.29
2017-09-12T19:44:37.360Z,73.37
2017-09-12T19:47:06.106Z,73.48
2017-09-12T19:49:34.738Z,72.41
2017-09-12T19:52:03.146Z,72.18
2017-09-12T19:54:31.803Z,72.31
2017-09-12T19:57:01.821Z,72.00
2017-09-12T19:59:30.199Z,72.12
2017-09-12T20:02:00.466Z,72.59
2017-09-12T20:04:29.887Z,72.83
2017-09-12T20:06:59.052Z,72.61
2017-09-12T20:09:28.194Z,72.01
2017-09-12T20:11:56.925Z,73.32
2017-09-12T20:14:26.071Z,72.61
2017-09-12T20:16:55.262Z,72.98
2017-09-12T20:19:24.502Z,73.42
2017-09-12T20:21:53.926Z,73.00
2017-09-12T20:24:22.278Z,73.79
2017-09-12T20:26:51.326Z,74.45
2017-09-12T20:29:19.926Z,73.96
2017-09-12T20:31:51.807Z,74.16
2017-09-12T20:34:20.715Z,74.31
2017-09-12T20:36:49.829Z,74.08
2017-09-12T20:39:18.218Z,74.33
2017-09-12T20:41:47.050Z,75.49
2017-09-12T20:44:16.664Z,75.11
2017-09-12T20:46:45.899Z,74.61
2017-09-12T20:49:14.554Z,74.74
2017-09-12T20:51:43.000Z,75.49
2017-09-12T20:54:12.258Z,74.79
2017-09-12T20:56:44.484Z,74.69
2017-09-12T20:59:13.038Z,74.60
2017-09-12T21:01:41.987Z,74.37
2017-09-12T21:04:11.317Z,74.59
2017-09-12T21:06:39.802Z,74.79
2017-09-12T21:09:08.161Z,75.05
2017-09-12T21:11:37.016Z,75.50
2017-09-12T21:14:06.777Z,74.89
2017-09-12T21:16:36.172Z,75.26
2017-09-12T21:19:05.598Z,74.63
2017-09-12T21:21:34.066Z,75.49
2017-09-12T21:24:02.758Z,75.67
2017-09-12T21:26:31.668Z,76.77
2017-09-12T21:29:00.887Z,76.28
2017-09-12T21:31:29.999Z,76.11
2017-09-12T21:33:59.429Z,76.46
2017-09-12T21:36:27.960Z,76.32
2017-09-12T21:38:57.267Z,75.37
2017-09-12T21:41:27.352Z,75.39
2017-09-12T21:43:57.663Z,75.95
2017-09-12T21:46:27.845Z,75.41
2017-09-12T21:48:56.388Z,76.14
2017-09-12T21:51:24.885Z,75.91
2017-09-12T21:53:55.809Z,76.96
2017-09-12T21:56:24.426Z,77.10
2017-09-12T21:58:53.826Z,77.21
2017-09-12T22:01:22.520Z,76.29
2017-09-12T22:03:51.730Z,76.11
2017-09-12T22:06:20.165Z,75.60
2017-09-12T22:08:49.036Z,75.59
2017-09-12T22:11:17.665Z,76.54
2017-09-12T22:13:46.027Z,76.98
2017-09-12T22:16:15.836Z,77.19
2017-09-12T22:18:44.991Z,77.12
2017-09-12T22:21:13.350Z,77.70
2017-09-12T22:23:42.293Z,77.05
2017-09-12T22:26:10.892Z,76.98
2017-09-12T22:28:39.315Z,76.96
2017-09-12T22:31:08.374Z,77.55
2017-09-12T22:33:37.482Z,77.58
2017-09-12T22:36:05.870Z,77.06
2017-09-12T22:38:34.896Z,77.12
2017-09-12T22:41:03.702Z,77.03
2017-09-12T22:43:32.050Z,77.46
2017-09-12T22:46:00.919Z,77.47
2017-09-12T22:48:29.298Z,77.32
2017-09-12T22:50:58.354Z,78.09
2017-09-12T22:53:27.650Z,78.61
2017-09-12T22:55:56.057Z,78.10
2017-09-12T22:58:25.354Z,78.37
2017-09-12T23:00:54.530Z,78.31
2017-09-12T23:03:22.904Z,78.64
2017-09-12T23:05:51.905Z,78.27
2017-09-12T23:08:20.630Z,78.73
2017-09-12T23:10:49.025Z,78.78
2017-09-12T23:13:17.430Z,78.74
2017-09-12T23:15:46.547Z,78.30
2017-09-12T23:18:14.914Z,77.91
2017-09-12T23:20:45.147Z,78.01
2017-09-12T23:23:15.160Z,78.23
2017-09-12T23:25:44.249Z,78.65
2017-09-12T23:28:12.640Z,78.35
2017-09-12T23:30:41.415Z,78.30
2017-09-12T23:33:09.806Z,79.43
2017-09-12T23:35:38.978Z,78.83
2017-09-12T23:38:08.097Z,79.44
2017-09-12T23:40:36.468Z,79.47
2017-09-12T23:43:05.251Z,79.34
2017-09-12T23:45:33.877Z,79.20
2017-09-12T23:48:03.089Z,79.13
2017-09-12T23:50:31.494Z,78.49
2017-09-12T23:53:00.360Z,77.75
2017-09-12T23:55:28.751Z,77.87
2017-09-12T23:57:57.149Z,77.56
